Terminal Aerodrome Forecast
Issued by NWS Blacksburg, VA

Current Version | Previous Version | Graphics & Text | Print | Product List | Glossary On
Versions: 1 2 3 4 5 6 7 8 9 10 11 12 13
000
FTUS41 KRNK 221720
TAFBLF
TAF
KBLF 221720Z 2218/2318 33005KT P6SM SCT040
     FM230800 VRB03KT 5SM BR SKC
     FM231300 16005KT P6SM SCT035=

USA.gov is the U.S. government's official web portal to all federal, state and local government web resources and services.